Time;durP1;ratioP1;P1;durP2;ratioP2;P2;SDS_P1;SDS_P2;PMS_P1;PMS_P2;Temp;Humidity;BMP_temperature;BMP_pressure;BME280_temperature;BME280_humidity;BME280_pressure;Samples;Min_cycle;Max_cycle;Signal;HPM_P1;HPM_P2
2021/04/10 00:02:22;;;;;;;8.10;5.80;;;;;;;;;;733675;189;919713;-72
2021/04/10 00:04:48;;;;;;;8.65;4.87;;;;;;;;;;739581;189;918389;-73
2021/04/10 00:07:14;;;;;;;9.00;4.20;;;;;;;;;;735975;189;919228;-73
2021/04/10 00:09:39;;;;;;;9.63;5.00;;;;;;;;;;732450;189;911743;-74
2021/04/10 00:12:06;;;;;;;10.00;6.17;;;;;;;;;;743578;189;919347;-73
2021/04/10 00:14:32;;;;;;;11.10;7.20;;;;;;;;;;734364;189;918426;-73
2021/04/10 00:16:57;;;;;;;7.20;5.27;;;;;;;;;;730625;189;918547;-74
2021/04/10 00:19:23;;;;;;;9.90;5.77;;;;;;;;;;734175;189;914471;-71
2021/04/10 00:21:49;;;;;;;7.82;5.35;;;;;;;;;;736807;189;1018516;-73
2021/04/10 00:24:15;;;;;;;7.50;4.72;;;;;;;;;;737001;189;911042;-73
2021/04/10 00:26:41;;;;;;;8.63;4.30;;;;;;;;;;737159;189;918946;-72
2021/04/10 00:29:07;;;;;;;10.90;5.27;;;;;;;;;;733444;189;918859;-73
2021/04/10 00:31:32;;;;;;;10.20;4.87;;;;;;;;;;736231;189;919658;-73
2021/04/10 00:34:02;;;;;;;12.50;5.90;;;;;;;;;;742025;188;918748;-73
2021/04/10 00:36:27;;;;;;;10.43;4.90;;;;;;;;;;743103;189;919319;-74
2021/04/10 00:38:53;;;;;;;9.47;4.87;;;;;;;;;;734581;189;919136;-73
2021/04/10 00:41:19;;;;;;;6.83;4.10;;;;;;;;;;736439;189;918717;-74
2021/04/10 00:43:45;;;;;;;7.27;4.43;;;;;;;;;;744477;189;920732;-74
2021/04/10 00:46:11;;;;;;;8.15;5.05;;;;;;;;;;733752;189;1089144;-73
2021/04/10 00:48:37;;;;;;;9.83;5.23;;;;;;;;;;737110;189;1020863;-73
2021/04/10 00:51:02;;;;;;;6.33;4.47;;;;;;;;;;732602;189;918716;-73
2021/04/10 00:53:28;;;;;;;6.50;3.73;;;;;;;;;;726585;191;919310;-74
2021/04/10 00:55:54;;;;;;;7.00;3.97;;;;;;;;;;732193;189;920529;-74
2021/04/10 00:58:20;;;;;;;7.82;4.55;;;;;;;;;;727443;189;973663;-73
2021/04/10 01:00:46;;;;;;;11.33;4.97;;;;;;;;;;740334;189;990496;-73
2021/04/10 01:03:12;;;;;;;7.83;4.00;;;;;;;;;;737686;189;930778;-73
2021/04/10 01:05:37;;;;;;;6.80;3.80;;;;;;;;;;734901;189;964622;-73
2021/04/10 01:08:03;;;;;;;6.80;4.63;;;;;;;;;;740858;189;919116;-72
2021/04/10 01:10:31;;;;;;;8.53;4.50;;;;;;;;;;735441;189;919395;-73
2021/04/10 01:12:57;;;;;;;9.00;4.80;;;;;;;;;;736329;189;918961;-73
2021/04/10 01:15:26;;;;;;;6.83;4.20;;;;;;;;;;735590;189;917449;-74
2021/04/10 01:17:52;;;;;;;7.25;4.00;;;;;;;;;;738338;187;886401;-73
2021/04/10 01:20:35;;;;;;;10.60;4.67;;;;;;;;;;735130;189;919309;-73
2021/04/10 01:23:05;;;;;;;7.20;5.17;;;;;;;;;;723996;190;920152;-72
2021/04/10 01:25:45;;;;;;;6.13;4.30;;;;;;;;;;734781;189;919522;-74
2021/04/10 01:28:26;;;;;;;7.57;4.37;;;;;;;;;;728897;189;919146;-74
2021/04/10 01:30:52;;;;;;;6.00;4.60;;;;;;;;;;732013;189;919165;-74
2021/04/10 01:33:17;;;;;;;10.50;4.33;;;;;;;;;;735414;189;1316957;-76
2021/04/10 01:35:44;;;;;;;6.37;4.07;;;;;;;;;;738531;189;917790;-74
2021/04/10 01:38:10;;;;;;;8.10;4.43;;;;;;;;;;729674;189;919553;-74
2021/04/10 01:40:36;;;;;;;7.70;4.47;;;;;;;;;;739205;189;915745;-73
2021/04/10 01:43:02;;;;;;;6.80;4.10;;;;;;;;;;733544;189;918281;-73
2021/04/10 01:45:28;;;;;;;8.65;5.37;;;;;;;;;;738275;187;919914;-73
2021/04/10 01:47:54;;;;;;;7.00;4.27;;;;;;;;;;735450;189;1021585;-74
2021/04/10 01:50:20;;;;;;;9.10;4.97;;;;;;;;;;741256;189;814033;-74
2021/04/10 01:52:46;;;;;;;8.80;5.37;;;;;;;;;;734833;189;915592;-74
2021/04/10 01:55:12;;;;;;;8.43;5.15;;;;;;;;;;737352;189;914688;-75
2021/04/10 01:57:39;;;;;;;6.60;4.60;;;;;;;;;;739794;189;922534;-74
2021/04/10 02:00:05;;;;;;;12.87;4.13;;;;;;;;;;720539;193;917196;-74
2021/04/10 02:02:31;;;;;;;7.83;4.60;;;;;;;;;;736443;189;921882;-74
2021/04/10 02:04:57;;;;;;;6.10;3.87;;;;;;;;;;737434;189;915026;-74
2021/04/10 02:07:23;;;;;;;7.07;4.40;;;;;;;;;;734881;189;946563;-74
2021/04/10 02:09:48;;;;;;;7.17;4.27;;;;;;;;;;730699;190;905948;-74
2021/04/10 02:12:14;;;;;;;10.17;3.77;;;;;;;;;;735474;189;878241;-74
2021/04/10 02:14:40;;;;;;;5.30;4.05;;;;;;;;;;739616;189;766500;-75
2021/04/10 02:17:06;;;;;;;5.23;3.70;;;;;;;;;;733768;189;912059;-74
2021/04/10 02:19:32;;;;;;;8.40;4.35;;;;;;;;;;729276;189;1813844;-73
2021/04/10 02:21:58;;;;;;;6.90;5.03;;;;;;;;;;737546;189;912601;-73
2021/04/10 02:24:23;;;;;;;8.87;4.70;;;;;;;;;;720909;193;914900;-74
2021/04/10 02:26:49;;;;;;;12.00;4.67;;;;;;;;;;735772;189;898679;-73
2021/04/10 02:29:15;;;;;;;9.20;4.80;;;;;;;;;;740380;189;904655;-74
2021/04/10 02:31:45;;;;;;;6.57;4.40;;;;;;;;;;733810;189;919292;-75
2021/04/10 02:34:12;;;;;;;6.80;4.50;;;;;;;;;;726627;189;918248;-75
2021/04/10 02:36:37;;;;;;;7.23;4.43;;;;;;;;;;736354;189;917610;-74
2021/04/10 02:39:03;;;;;;;7.80;4.70;;;;;;;;;;742232;189;918570;-74
2021/04/10 02:41:29;;;;;;;7.90;4.57;;;;;;;;;;734376;189;897479;-75
2021/04/10 02:43:55;;;;;;;7.10;4.70;;;;;;;;;;737503;189;941763;-74
2021/04/10 02:46:21;;;;;;;9.83;6.10;;;;;;;;;;741216;189;845084;-74
2021/04/10 02:48:47;;;;;;;7.13;5.73;;;;;;;;;;730810;189;1773179;-74
2021/04/10 02:51:12;;;;;;;11.13;5.97;;;;;;;;;;732531;189;919087;-75
2021/04/10 02:53:38;;;;;;;9.63;5.97;;;;;;;;;;732242;189;918809;-73
2021/04/10 02:56:04;;;;;;;8.77;5.37;;;;;;;;;;735127;187;919186;-73
2021/04/10 02:58:30;;;;;;;10.80;5.37;;;;;;;;;;738734;188;919036;-73
2021/04/10 03:00:56;;;;;;;9.33;5.80;;;;;;;;;;728210;189;2701455;-73
2021/04/10 03:03:22;;;;;;;9.23;5.20;;;;;;;;;;742105;189;876822;-75
2021/04/10 03:05:48;;;;;;;9.63;5.33;;;;;;;;;;737903;189;918897;-74
2021/04/10 03:08:17;;;;;;;12.50;5.67;;;;;;;;;;739810;189;1021075;-74
2021/04/10 03:10:45;;;;;;;9.97;5.80;;;;;;;;;;738256;189;918528;-75
2021/04/10 03:13:11;;;;;;;11.47;6.50;;;;;;;;;;735634;189;918710;-75
2021/04/10 03:15:40;;;;;;;8.83;6.50;;;;;;;;;;735131;189;919502;-74
2021/04/10 03:18:06;;;;;;;9.47;6.20;;;;;;;;;;736210;189;919143;-74
2021/04/10 03:20:32;;;;;;;18.02;5.93;;;;;;;;;;742770;189;919075;-74
2021/04/10 03:22:57;;;;;;;11.33;5.97;;;;;;;;;;728324;189;1020789;-74
2021/04/10 03:25:23;;;;;;;18.08;5.68;;;;;;;;;;728860;189;1021331;-75
2021/04/10 03:27:49;;;;;;;10.70;5.83;;;;;;;;;;739378;189;919811;-75
2021/04/10 03:30:15;;;;;;;8.93;5.43;;;;;;;;;;730802;189;919553;-75
2021/04/10 03:32:41;;;;;;;8.57;5.60;;;;;;;;;;736653;189;817184;-75
2021/04/10 03:35:08;;;;;;;6.60;5.83;;;;;;;;;;741317;189;919001;-75
2021/04/10 03:37:34;;;;;;;8.80;4.97;;;;;;;;;;737198;189;915201;-75
2021/04/10 03:40:01;;;;;;;11.73;5.57;;;;;;;;;;735585;189;920008;-75
2021/04/10 03:42:31;;;;;;;9.43;5.07;;;;;;;;;;734771;189;918679;-74
2021/04/10 03:44:56;;;;;;;8.30;5.30;;;;;;;;;;736789;189;903915;-74
2021/04/10 03:47:22;;;;;;;8.30;5.00;;;;;;;;;;730703;189;918587;-73
2021/04/10 03:49:48;;;;;;;8.10;5.47;;;;;;;;;;737441;189;1021471;-73
2021/04/10 03:52:14;;;;;;;10.20;6.62;;;;;;;;;;737867;189;920099;-73
2021/04/10 03:54:41;;;;;;;9.93;5.57;;;;;;;;;;732122;189;919350;-74
2021/04/10 03:57:06;;;;;;;8.00;5.43;;;;;;;;;;735811;189;919743;-74
2021/04/10 03:59:31;;;;;;;10.47;6.07;;;;;;;;;;732638;189;921966;-75
2021/04/10 04:01:57;;;;;;;10.63;6.27;;;;;;;;;;735245;189;916732;-74
2021/04/10 04:04:23;;;;;;;8.23;5.43;;;;;;;;;;732735;189;1227320;-75
2021/04/10 04:06:49;;;;;;;10.33;5.63;;;;;;;;;;734124;189;918861;-76
2021/04/10 04:09:15;;;;;;;8.87;5.97;;;;;;;;;;740054;188;1020252;-73
2021/04/10 04:11:41;;;;;;;8.07;6.60;;;;;;;;;;739333;189;920225;-73
2021/04/10 04:14:06;;;;;;;11.07;5.47;;;;;;;;;;736646;189;918110;-72
2021/04/10 04:16:32;;;;;;;7.23;5.27;;;;;;;;;;742937;189;711462;-72
2021/04/10 04:18:59;;;;;;;9.87;6.00;;;;;;;;;;729764;189;1020764;-75
2021/04/10 04:21:24;;;;;;;7.70;6.00;;;;;;;;;;737326;189;927591;-74
2021/04/10 04:23:50;;;;;;;8.37;5.60;;;;;;;;;;732624;189;1045484;-72
2021/04/10 04:26:16;;;;;;;8.63;5.90;;;;;;;;;;743585;185;916667;-75
2021/04/10 04:28:42;;;;;;;8.93;4.90;;;;;;;;;;734646;189;919706;-75
2021/04/10 04:31:08;;;;;;;9.23;5.13;;;;;;;;;;735549;189;918897;-76
2021/04/10 04:33:34;;;;;;;10.30;5.47;;;;;;;;;;741618;189;919113;-75
2021/04/10 04:35:59;;;;;;;9.63;5.60;;;;;;;;;;732209;189;1024444;-74
2021/04/10 04:38:25;;;;;;;9.40;6.07;;;;;;;;;;732775;189;1021754;-75
2021/04/10 04:40:51;;;;;;;8.67;5.47;;;;;;;;;;739206;189;906704;-74
2021/04/10 04:43:17;;;;;;;10.03;6.33;;;;;;;;;;735663;189;919379;-74
2021/04/10 04:45:43;;;;;;;12.13;6.47;;;;;;;;;;731381;189;1015853;-75
2021/04/10 04:48:09;;;;;;;8.03;5.60;;;;;;;;;;740891;189;918769;-75
2021/04/10 04:50:34;;;;;;;7.87;5.97;;;;;;;;;;731596;189;919352;-76
2021/04/10 04:53:00;;;;;;;11.10;6.20;;;;;;;;;;733861;189;919089;-75
2021/04/10 04:55:26;;;;;;;9.13;5.70;;;;;;;;;;733037;189;1020698;-75
2021/04/10 04:57:52;;;;;;;21.83;5.63;;;;;;;;;;739837;189;1020916;-75
2021/04/10 05:00:18;;;;;;;14.57;7.23;;;;;;;;;;734709;189;919551;-74
2021/04/10 05:02:44;;;;;;;10.05;6.85;;;;;;;;;;733488;189;946575;-75
2021/04/10 05:05:10;;;;;;;9.27;6.03;;;;;;;;;;738875;189;918314;-75
2021/04/10 05:07:36;;;;;;;13.43;8.47;;;;;;;;;;734115;189;919588;-74
2021/04/10 05:10:04;;;;;;;11.23;7.07;;;;;;;;;;733623;189;1037425;-74
2021/04/10 05:12:30;;;;;;;15.23;7.00;;;;;;;;;;740232;189;1017348;-75
2021/04/10 05:14:56;;;;;;;17.47;7.90;;;;;;;;;;735691;189;918211;-74
2021/04/10 05:17:21;;;;;;;10.83;7.57;;;;;;;;;;733930;189;1337291;-76
2021/04/10 05:19:48;;;;;;;17.27;7.13;;;;;;;;;;734747;189;919304;-76
2021/04/10 05:22:14;;;;;;;11.87;8.00;;;;;;;;;;744149;189;807871;-77
2021/04/10 05:24:40;;;;;;;12.73;6.87;;;;;;;;;;737303;189;1011459;-77
2021/04/10 05:27:05;;;;;;;9.88;6.93;;;;;;;;;;735141;189;919539;-76
2021/04/10 05:29:31;;;;;;;12.03;7.57;;;;;;;;;;739982;189;918663;-76
2021/04/10 05:31:57;;;;;;;12.23;6.83;;;;;;;;;;735693;189;920228;-75
2021/04/10 05:34:23;;;;;;;13.05;8.77;;;;;;;;;;732751;189;919544;-76
2021/04/10 05:36:49;;;;;;;17.27;8.97;;;;;;;;;;736828;189;920008;-75
2021/04/10 05:39:15;;;;;;;12.47;7.47;;;;;;;;;;736438;189;919420;-75
2021/04/10 05:41:41;;;;;;;15.52;8.20;;;;;;;;;;733754;189;945160;-75
2021/04/10 05:44:07;;;;;;;11.07;7.17;;;;;;;;;;735266;189;1017282;-74
2021/04/10 05:46:34;;;;;;;11.90;8.33;;;;;;;;;;730812;189;927033;-74
2021/04/10 05:49:00;;;;;;;16.23;9.13;;;;;;;;;;736816;189;918455;-72
2021/04/10 05:51:26;;;;;;;17.60;8.80;;;;;;;;;;735805;189;906866;-71
2021/04/10 05:53:52;;;;;;;14.97;9.23;;;;;;;;;;739127;189;1021447;-72
2021/04/10 05:56:17;;;;;;;19.40;9.13;;;;;;;;;;739523;189;918601;-74
2021/04/10 05:58:43;;;;;;;22.10;11.03;;;;;;;;;;731015;189;922023;-74
2021/04/10 06:01:09;;;;;;;13.33;6.80;;;;;;;;;;739367;189;918889;-73
2021/04/10 06:03:36;;;;;;;14.20;6.70;;;;;;;;;;728216;189;1889847;-74
2021/04/10 06:06:02;;;;;;;11.73;8.07;;;;;;;;;;737757;189;918519;-74
2021/04/10 06:08:29;;;;;;;15.27;11.50;;;;;;;;;;736223;189;816346;-74
2021/04/10 06:10:54;;;;;;;23.07;20.00;;;;;;;;;;732651;189;920449;-73
2021/04/10 06:13:20;;;;;;;12.27;6.53;;;;;;;;;;730348;189;918943;-73
2021/04/10 06:15:46;;;;;;;8.50;5.07;;;;;;;;;;733917;189;918206;-72
2021/04/10 06:18:12;;;;;;;9.25;5.75;;;;;;;;;;733733;189;918724;-74
2021/04/10 06:20:38;;;;;;;6.83;3.70;;;;;;;;;;731316;189;923398;-73
2021/04/10 06:23:03;;;;;;;10.03;4.60;;;;;;;;;;733114;189;1015532;-72
2021/04/10 06:25:29;;;;;;;18.27;4.33;;;;;;;;;;739190;189;920067;-72
2021/04/10 06:27:55;;;;;;;9.93;5.83;;;;;;;;;;736119;189;816139;-72
2021/04/10 06:30:21;;;;;;;14.30;7.70;;;;;;;;;;727969;189;1738002;-72
2021/04/10 06:32:47;;;;;;;12.50;5.60;;;;;;;;;;740394;187;917489;-72
2021/04/10 06:35:13;;;;;;;7.03;3.80;;;;;;;;;;737789;189;919080;-72
2021/04/10 06:37:41;;;;;;;8.03;5.90;;;;;;;;;;735346;189;925652;-72
2021/04/10 06:40:06;;;;;;;8.90;5.00;;;;;;;;;;731594;189;918901;-72
2021/04/10 06:42:32;;;;;;;12.70;4.70;;;;;;;;;;735427;189;919005;-72
2021/04/10 06:44:58;;;;;;;8.18;4.80;;;;;;;;;;732222;189;916168;-72
2021/04/10 06:47:26;;;;;;;6.03;4.10;;;;;;;;;;741112;189;638275;-73
2021/04/10 06:49:49;;;;;;;6.40;3.60;;;;;;;;;;737562;189;664056;-74
2021/04/10 06:52:15;;;;;;;8.10;3.87;;;;;;;;;;734936;189;618508;-72
2021/04/10 06:54:41;;;;;;;6.77;4.30;;;;;;;;;;734644;189;668290;-72
2021/04/10 06:57:07;;;;;;;5.63;3.93;;;;;;;;;;739721;189;621430;-71
2021/04/10 06:59:34;;;;;;;6.57;3.83;;;;;;;;;;740753;189;632852;-73
2021/04/10 07:02:00;;;;;;;32.10;12.23;;;;;;;;;;738378;189;918050;-72
2021/04/10 07:04:30;;;;;;;10.60;4.30;;;;;;;;;;739623;189;629663;-72
2021/04/10 07:06:56;;;;;;;7.83;4.27;;;;;;;;;;741626;189;631866;-72
2021/04/10 07:09:22;;;;;;;9.97;6.90;;;;;;;;;;743954;189;624498;-73
2021/04/10 07:11:48;;;;;;;8.23;4.53;;;;;;;;;;734977;189;669620;-72
2021/04/10 07:14:13;;;;;;;5.60;3.80;;;;;;;;;;744683;189;618715;-72
2021/04/10 07:16:39;;;;;;;9.97;6.70;;;;;;;;;;738906;189;627688;-72
2021/04/10 07:19:07;;;;;;;9.37;4.93;;;;;;;;;;741123;189;626118;-72
2021/04/10 07:21:34;;;;;;;10.63;4.07;;;;;;;;;;739440;189;636298;-72
2021/04/10 07:23:59;;;;;;;12.30;4.60;;;;;;;;;;743843;189;626355;-72
2021/04/10 07:26:31;;;;;;;6.80;3.73;;;;;;;;;;740199;189;616239;-73
2021/04/10 07:28:57;;;;;;;6.93;3.87;;;;;;;;;;737564;189;633994;-72
2021/04/10 07:31:23;;;;;;;5.77;3.83;;;;;;;;;;736950;189;1280909;-71
2021/04/10 07:33:55;;;;;;;9.70;4.20;;;;;;;;;;743815;186;622131;-72
2021/04/10 07:36:20;;;;;;;8.13;4.20;;;;;;;;;;734464;189;628522;-71
2021/04/10 07:38:46;;;;;;;11.23;4.63;;;;;;;;;;739633;189;636975;-73
2021/04/10 07:41:20;;;;;;;11.33;5.37;;;;;;;;;;733413;189;629721;-73
2021/04/10 07:43:45;;;;;;;11.30;4.77;;;;;;;;;;741625;188;688377;-70
2021/04/10 07:46:12;;;;;;;8.77;5.50;;;;;;;;;;739829;189;619920;-72
2021/04/10 07:48:38;;;;;;;10.53;4.20;;;;;;;;;;737591;189;637399;-71
2021/04/10 07:51:03;;;;;;;9.67;4.20;;;;;;;;;;746605;189;628164;-71
2021/04/10 07:53:29;;;;;;;9.40;3.63;;;;;;;;;;739288;189;631552;-70
2021/04/10 07:55:55;;;;;;;11.30;5.25;;;;;;;;;;736453;189;626320;-72
2021/04/10 07:58:21;;;;;;;5.10;3.47;;;;;;;;;;739920;189;664705;-71
2021/04/10 08:00:47;;;;;;;7.70;4.27;;;;;;;;;;740435;189;626031;-71
2021/04/10 08:03:19;;;;;;;10.30;4.70;;;;;;;;;;736368;189;633303;-71
2021/04/10 08:05:44;;;;;;;6.83;4.30;;;;;;;;;;736532;189;621267;-70
2021/04/10 08:08:10;;;;;;;7.33;4.30;;;;;;;;;;739712;189;627078;-71
2021/04/10 08:10:36;;;;;;;9.03;5.10;;;;;;;;;;736398;189;635464;-70
2021/04/10 08:13:07;;;;;;;8.33;4.27;;;;;;;;;;739185;189;643994;-71
2021/04/10 08:15:33;;;;;;;7.50;4.32;;;;;;;;;;741951;189;638146;-70
2021/04/10 08:17:59;;;;;;;12.00;4.47;;;;;;;;;;742934;186;642821;-70
2021/04/10 08:20:29;;;;;;;6.63;3.83;;;;;;;;;;742721;189;630005;-71
2021/04/10 08:23:13;;;;;;;7.30;3.97;;;;;;;;;;737987;189;684585;-70
2021/04/10 08:25:39;;;;;;;8.80;3.63;;;;;;;;;;737861;189;633372;-71
2021/04/10 08:28:05;;;;;;;9.83;4.37;;;;;;;;;;742436;189;630348;-71
2021/04/10 08:30:31;;;;;;;6.80;4.30;;;;;;;;;;740733;189;630340;-71
2021/04/10 08:32:57;;;;;;;9.73;4.87;;;;;;;;;;734384;189;650800;-71
2021/04/10 08:35:23;;;;;;;5.97;3.92;;;;;;;;;;741978;189;618576;-70
2021/04/10 08:37:58;;;;;;;6.10;3.73;;;;;;;;;;746618;186;638976;-71
2021/04/10 08:40:24;;;;;;;6.80;4.33;;;;;;;;;;730019;189;1434072;-71
2021/04/10 08:42:50;;;;;;;15.00;3.90;;;;;;;;;;733790;189;1020683;-70
2021/04/10 08:45:16;;;;;;;7.23;3.47;;;;;;;;;;734520;189;925494;-70
2021/04/10 08:47:42;;;;;;;9.27;4.00;;;;;;;;;;736971;189;930917;-72
2021/04/10 08:50:08;;;;;;;14.13;4.60;;;;;;;;;;735213;189;917934;-69
2021/04/10 08:52:34;;;;;;;5.30;3.93;;;;;;;;;;735831;189;916940;-71
2021/04/10 08:55:00;;;;;;;8.05;4.22;;;;;;;;;;737838;188;915506;-70
2021/04/10 08:57:40;;;;;;;8.90;4.30;;;;;;;;;;736250;189;922674;-72
2021/04/10 09:00:13;;;;;;;7.70;4.00;;;;;;;;;;732529;189;922232;-72
2021/04/10 09:02:38;;;;;;;9.43;3.80;;;;;;;;;;738744;189;919693;-71
2021/04/10 09:05:06;;;;;;;6.70;3.77;;;;;;;;;;741450;189;907361;-72
2021/04/10 09:07:47;;;;;;;10.93;3.70;;;;;;;;;;734404;189;918631;-73
2021/04/10 09:10:19;;;;;;;4.50;3.10;;;;;;;;;;729300;189;917797;-72
2021/04/10 09:12:45;;;;;;;7.00;3.63;;;;;;;;;;737472;189;918029;-70
2021/04/10 09:15:11;;;;;;;9.00;4.30;;;;;;;;;;736098;189;913393;-71
2021/04/10 09:17:43;;;;;;;5.67;2.90;;;;;;;;;;738599;189;919144;-70
2021/04/10 09:20:09;;;;;;;11.03;3.37;;;;;;;;;;732989;189;919102;-71
2021/04/10 09:22:35;;;;;;;8.23;3.37;;;;;;;;;;736123;189;918140;-72
2021/04/10 09:25:01;;;;;;;6.17;3.40;;;;;;;;;;731694;189;1010257;-71
2021/04/10 09:27:28;;;;;;;6.33;3.10;;;;;;;;;;744518;186;918796;-72
2021/04/10 09:29:53;;;;;;;5.80;3.37;;;;;;;;;;737159;189;918847;-72
2021/04/10 09:32:24;;;;;;;5.50;2.97;;;;;;;;;;727064;189;918674;-68
2021/04/10 09:34:52;;;;;;;7.87;3.30;;;;;;;;;;740758;189;919206;-71
2021/04/10 09:37:35;;;;;;;4.90;3.20;;;;;;;;;;734896;189;919873;-71
2021/04/10 09:40:04;;;;;;;11.53;3.80;;;;;;;;;;728585;189;920120;-72
2021/04/10 09:42:45;;;;;;;6.30;3.60;;;;;;;;;;732669;189;918692;-72
2021/04/10 09:45:12;;;;;;;8.40;4.20;;;;;;;;;;738221;189;919531;-72
2021/04/10 09:47:44;;;;;;;6.57;3.03;;;;;;;;;;737074;189;942752;-70
2021/04/10 09:50:13;;;;;;;7.70;3.65;;;;;;;;;;740868;189;919149;-72
2021/04/10 09:52:39;;;;;;;7.50;3.90;;;;;;;;;;734081;189;918725;-71
2021/04/10 09:55:05;;;;;;;7.70;3.60;;;;;;;;;;737780;189;919311;-71
2021/04/10 09:57:32;;;;;;;8.57;4.27;;;;;;;;;;729965;189;1127951;-70
2021/04/10 09:59:58;;;;;;;6.53;3.43;;;;;;;;;;736301;189;919253;-72
2021/04/10 10:02:27;;;;;;;6.47;3.13;;;;;;;;;;730765;189;919395;-70
2021/04/10 10:04:52;;;;;;;6.23;3.93;;;;;;;;;;735249;189;918631;-72
2021/04/10 10:07:18;;;;;;;7.15;4.50;;;;;;;;;;732042;188;2525863;-70
2021/04/10 10:09:44;;;;;;;6.10;3.87;;;;;;;;;;738789;189;919009;-70
2021/04/10 10:12:10;;;;;;;6.93;3.63;;;;;;;;;;734785;189;919549;-70
2021/04/10 10:14:42;;;;;;;6.73;3.50;;;;;;;;;;731945;189;918687;-68
2021/04/10 10:17:08;;;;;;;8.20;3.73;;;;;;;;;;732858;189;919619;-71
2021/04/10 10:19:33;;;;;;;7.60;4.30;;;;;;;;;;733949;189;920531;-71
2021/04/10 10:21:59;;;;;;;14.77;4.20;;;;;;;;;;736638;189;919156;-72
2021/04/10 10:24:25;;;;;;;5.80;3.60;;;;;;;;;;737473;189;918139;-71
2021/04/10 10:26:51;;;;;;;6.30;4.10;;;;;;;;;;737936;189;922733;-70
2021/04/10 10:29:17;;;;;;;6.67;4.33;;;;;;;;;;725896;189;938984;-69
2021/04/10 10:31:46;;;;;;;6.97;3.53;;;;;;;;;;739564;189;903676;-70
2021/04/10 10:34:12;;;;;;;6.10;3.10;;;;;;;;;;735398;187;918678;-71
2021/04/10 10:36:38;;;;;;;12.43;4.07;;;;;;;;;;737864;189;919677;-70
2021/04/10 10:39:05;;;;;;;7.83;4.33;;;;;;;;;;735025;189;912409;-70
2021/04/10 10:41:30;;;;;;;11.93;3.50;;;;;;;;;;741819;189;920578;-70
2021/04/10 10:44:00;;;;;;;5.47;3.43;;;;;;;;;;733409;189;918025;-71
2021/04/10 10:46:26;;;;;;;7.00;3.43;;;;;;;;;;732030;189;918906;-71
2021/04/10 10:48:52;;;;;;;6.17;3.87;;;;;;;;;;732873;189;921713;-68
2021/04/10 10:51:18;;;;;;;8.87;3.83;;;;;;;;;;736373;189;924243;-68
2021/04/10 10:53:43;;;;;;;5.90;3.70;;;;;;;;;;731907;189;959886;-70
2021/04/10 10:56:09;;;;;;;11.60;4.13;;;;;;;;;;732896;189;920538;-71
2021/04/10 10:58:36;;;;;;;4.93;3.10;;;;;;;;;;738888;189;915977;-70
2021/04/10 11:01:02;;;;;;;7.13;3.97;;;;;;;;;;737116;189;919588;-70
2021/04/10 11:03:28;;;;;;;5.50;3.87;;;;;;;;;;736176;189;915555;-72
2021/04/10 11:05:54;;;;;;;8.60;3.40;;;;;;;;;;735489;189;915957;-70
2021/04/10 11:08:20;;;;;;;9.25;3.25;;;;;;;;;;736371;189;915323;-72
2021/04/10 11:10:46;;;;;;;7.07;3.23;;;;;;;;;;733395;189;1033809;-70
2021/04/10 11:13:13;;;;;;;5.60;3.75;;;;;;;;;;739425;189;919310;-68
2021/04/10 11:15:39;;;;;;;7.67;3.87;;;;;;;;;;741384;186;1038340;-71
2021/04/10 11:18:05;;;;;;;4.80;3.00;;;;;;;;;;738298;187;919537;-70
2021/04/10 11:20:32;;;;;;;4.37;3.43;;;;;;;;;;736954;188;918791;-71
2021/04/10 11:23:03;;;;;;;8.10;3.57;;;;;;;;;;742990;189;919382;-70
2021/04/10 11:25:29;;;;;;;6.43;3.80;;;;;;;;;;734259;189;919486;-70
2021/04/10 11:27:55;;;;;;;7.73;3.37;;;;;;;;;;733123;189;919974;-71
2021/04/10 11:30:21;;;;;;;4.60;2.80;;;;;;;;;;733152;189;918991;-70
2021/04/10 11:32:47;;;;;;;9.87;3.53;;;;;;;;;;731082;189;918643;-71
2021/04/10 11:35:14;;;;;;;7.43;4.30;;;;;;;;;;731429;189;919524;-69
2021/04/10 11:37:39;;;;;;;10.73;3.80;;;;;;;;;;736337;189;919388;-69
2021/04/10 11:40:07;;;;;;;7.67;3.80;;;;;;;;;;741543;189;1021525;-70
2021/04/10 11:42:35;;;;;;;5.90;3.57;;;;;;;;;;724917;193;923193;-71
2021/04/10 11:45:01;;;;;;;9.13;4.00;;;;;;;;;;736472;189;986311;-70
2021/04/10 11:47:27;;;;;;;7.60;3.20;;;;;;;;;;741948;189;919249;-70
2021/04/10 11:49:53;;;;;;;6.43;3.90;;;;;;;;;;734823;189;919883;-70
2021/04/10 11:52:19;;;;;;;11.40;3.20;;;;;;;;;;731255;189;926822;-68
2021/04/10 11:54:45;;;;;;;6.87;3.23;;;;;;;;;;737402;189;916169;-71
2021/04/10 11:57:16;;;;;;;6.13;3.50;;;;;;;;;;737161;189;958023;-69
2021/04/10 11:59:42;;;;;;;6.63;3.57;;;;;;;;;;732208;189;916688;-71
2021/04/10 12:02:08;;;;;;;6.57;3.00;;;;;;;;;;734802;189;972467;-71
2021/04/10 12:04:37;;;;;;;5.13;3.60;;;;;;;;;;743202;189;916551;-70
2021/04/10 12:07:11;;;;;;;6.53;4.70;;;;;;;;;;736452;189;916111;-70
2021/04/10 12:09:37;;;;;;;9.60;3.08;;;;;;;;;;740461;189;916637;-70
2021/04/10 12:12:03;;;;;;;6.70;3.33;;;;;;;;;;733437;189;923917;-70
2021/04/10 12:14:29;;;;;;;7.03;3.83;;;;;;;;;;740932;189;917383;-70
2021/04/10 12:16:55;;;;;;;4.20;2.60;;;;;;;;;;733637;189;920207;-70
2021/04/10 12:19:22;;;;;;;10.53;4.07;;;;;;;;;;735488;189;994801;-70
2021/04/10 12:21:49;;;;;;;9.37;3.37;;;;;;;;;;731127;189;1178107;-70
2021/04/10 12:24:15;;;;;;;9.80;4.70;;;;;;;;;;729652;190;918633;-70
2021/04/10 12:26:41;;;;;;;7.50;3.47;;;;;;;;;;732284;189;918410;-69
2021/04/10 12:29:06;;;;;;;5.37;3.20;;;;;;;;;;736022;189;918491;-69
2021/04/10 12:31:32;;;;;;;6.30;3.30;;;;;;;;;;742394;188;920431;-69
2021/04/10 12:33:58;;;;;;;10.80;3.43;;;;;;;;;;734058;189;1016683;-69
2021/04/10 12:36:24;;;;;;;8.50;5.50;;;;;;;;;;739633;189;1020496;-71
2021/04/10 12:38:50;;;;;;;11.50;3.43;;;;;;;;;;739852;189;915266;-69
2021/04/10 12:41:16;;;;;;;7.13;3.27;;;;;;;;;;734035;189;924634;-70
2021/04/10 12:43:42;;;;;;;6.33;3.43;;;;;;;;;;731355;189;922156;-68
2021/04/10 12:46:07;;;;;;;5.63;3.53;;;;;;;;;;737729;189;918789;-69
2021/04/10 12:48:33;;;;;;;10.23;3.47;;;;;;;;;;737183;189;1182726;-70
2021/04/10 12:50:59;;;;;;;16.53;5.50;;;;;;;;;;736986;189;918945;-69
2021/04/10 12:53:25;;;;;;;7.53;3.40;;;;;;;;;;734222;189;919365;-69
2021/04/10 12:55:51;;;;;;;6.00;3.43;;;;;;;;;;740855;189;920367;-69
2021/04/10 12:58:18;;;;;;;4.57;3.13;;;;;;;;;;729122;189;920206;-70
2021/04/10 13:00:44;;;;;;;6.23;3.30;;;;;;;;;;732706;189;918660;-70
2021/04/10 13:03:10;;;;;;;6.83;4.03;;;;;;;;;;738160;189;920177;-68
2021/04/10 13:05:35;;;;;;;5.27;3.13;;;;;;;;;;731925;189;921751;-69
2021/04/10 13:08:01;;;;;;;9.40;3.95;;;;;;;;;;735711;189;915330;-70
2021/04/10 13:10:27;;;;;;;4.20;3.33;;;;;;;;;;707716;189;5504310;-70
2021/04/10 13:12:53;;;;;;;10.60;4.33;;;;;;;;;;744065;185;916558;-70
2021/04/10 13:15:20;;;;;;;5.40;3.10;;;;;;;;;;732583;189;915240;-68
2021/04/10 13:17:46;;;;;;;4.30;3.30;;;;;;;;;;734698;189;910773;-69
2021/04/10 13:20:11;;;;;;;6.17;3.63;;;;;;;;;;737544;189;1211958;-68
2021/04/10 13:22:37;;;;;;;5.43;3.40;;;;;;;;;;737026;189;910874;-69
2021/04/10 13:25:03;;;;;;;4.30;2.63;;;;;;;;;;734939;189;922175;-68
2021/04/10 13:27:29;;;;;;;6.23;3.50;;;;;;;;;;739759;189;915025;-69
2021/04/10 13:29:54;;;;;;;4.90;2.97;;;;;;;;;;733761;189;1389254;-68
2021/04/10 13:32:20;;;;;;;7.03;3.60;;;;;;;;;;732209;189;1179312;-68
2021/04/10 13:34:46;;;;;;;5.90;3.77;;;;;;;;;;735007;189;919769;-66
2021/04/10 13:37:12;;;;;;;6.40;3.23;;;;;;;;;;745001;185;917089;-69
2021/04/10 13:39:38;;;;;;;4.50;2.50;;;;;;;;;;735121;189;919566;-68
2021/04/10 13:42:04;;;;;;;5.37;3.50;;;;;;;;;;734883;187;919693;-69
2021/04/10 13:44:30;;;;;;;5.80;3.43;;;;;;;;;;742381;189;919322;-68
2021/04/10 13:46:56;;;;;;;6.63;3.23;;;;;;;;;;735955;189;919108;-69
2021/04/10 13:49:22;;;;;;;4.40;2.60;;;;;;;;;;726133;189;919110;-69
2021/04/10 13:51:47;;;;;;;9.30;3.12;;;;;;;;;;738453;189;919574;-70
2021/04/10 13:54:13;;;;;;;6.37;4.00;;;;;;;;;;737633;189;919795;-70
2021/04/10 13:56:39;;;;;;;8.75;3.87;;;;;;;;;;735881;189;918650;-69
2021/04/10 13:59:05;;;;;;;6.10;3.60;;;;;;;;;;738399;189;919382;-70
2021/04/10 14:01:31;;;;;;;6.87;4.13;;;;;;;;;;733636;189;919739;-71
2021/04/10 14:03:57;;;;;;;9.23;4.22;;;;;;;;;;735224;189;919184;-70
2021/04/10 14:06:23;;;;;;;6.10;3.85;;;;;;;;;;733897;189;918423;-70
2021/04/10 14:08:49;;;;;;;5.33;3.40;;;;;;;;;;742607;189;625659;-69
2021/04/10 14:11:15;;;;;;;8.27;3.40;;;;;;;;;;732549;189;919490;-68
2021/04/10 14:13:40;;;;;;;10.18;4.20;;;;;;;;;;738069;189;1124053;-68
2021/04/10 14:16:06;;;;;;;11.70;4.10;;;;;;;;;;739039;189;918237;-68
2021/04/10 14:18:32;;;;;;;15.77;5.13;;;;;;;;;;734960;189;1053629;-70
2021/04/10 14:20:58;;;;;;;7.27;3.43;;;;;;;;;;736315;189;889830;-70